sensor_id;sensor_type;location;lat;lon;timestamp;temperature;humidity
24636;DHT22;12772;49.794;10.024;2023-03-23T00:02:30;16.20;34.70
24636;DHT22;12772;49.794;10.024;2023-03-23T00:06:33;16.20;34.90
24636;DHT22;12772;49.794;10.024;2023-03-23T00:10:35;16.20;35.10
24636;DHT22;12772;49.794;10.024;2023-03-23T00:14:37;16.20;35.10
24636;DHT22;12772;49.794;10.024;2023-03-23T00:18:48;16.20;35.30
24636;DHT22;12772;49.794;10.024;2023-03-23T00:22:53;16.30;35.50
24636;DHT22;12772;49.794;10.024;2023-03-23T00:27:01;16.20;35.40
24636;DHT22;12772;49.794;10.024;2023-03-23T00:31:06;16.20;35.60
24636;DHT22;12772;49.794;10.024;2023-03-23T00:35:08;16.20;35.70
24636;DHT22;12772;49.794;10.024;2023-03-23T00:39:10;16.10;36.70
24636;DHT22;12772;49.794;10.024;2023-03-23T00:43:17;16.10;36.40
24636;DHT22;12772;49.794;10.024;2023-03-23T00:47:20;16.20;37.00
24636;DHT22;12772;49.794;10.024;2023-03-23T00:51:23;16.10;36.80
24636;DHT22;12772;49.794;10.024;2023-03-23T00:55:26;16.10;36.80
24636;DHT22;12772;49.794;10.024;2023-03-23T00:59:28;16.00;36.80
24636;DHT22;12772;49.794;10.024;2023-03-23T01:03:30;16.00;36.70
24636;DHT22;12772;49.794;10.024;2023-03-23T01:07:32;16.00;36.70
24636;DHT22;12772;49.794;10.024;2023-03-23T01:11:35;16.00;36.80
24636;DHT22;12772;49.794;10.024;2023-03-23T01:15:38;16.00;36.40
24636;DHT22;12772;49.794;10.024;2023-03-23T01:19:41;16.00;36.80
24636;DHT22;12772;49.794;10.024;2023-03-23T01:23:43;15.90;36.60
24636;DHT22;12772;49.794;10.024;2023-03-23T01:27:46;15.90;36.60
24636;DHT22;12772;49.794;10.024;2023-03-23T01:31:48;15.90;37.30
24636;DHT22;12772;49.794;10.024;2023-03-23T01:35:50;15.90;36.60
24636;DHT22;12772;49.794;10.024;2023-03-23T01:39:53;15.80;36.50
24636;DHT22;12772;49.794;10.024;2023-03-23T01:44:05;15.90;36.70
24636;DHT22;12772;49.794;10.024;2023-03-23T01:48:16;15.80;36.50
24636;DHT22;12772;49.794;10.024;2023-03-23T01:52:26;15.80;36.50
24636;DHT22;12772;49.794;10.024;2023-03-23T01:56:35;15.80;36.50
24636;DHT22;12772;49.794;10.024;2023-03-23T02:00:39;15.80;36.50
24636;DHT22;12772;49.794;10.024;2023-03-23T02:04:43;15.70;36.40
24636;DHT22;12772;49.794;10.024;2023-03-23T02:08:48;15.70;36.40
24636;DHT22;12772;49.794;10.024;2023-03-23T02:12:51;15.70;36.40
24636;DHT22;12772;49.794;10.024;2023-03-23T02:17:07;15.70;36.40
24636;DHT22;12772;49.794;10.024;2023-03-23T02:21:41;15.70;36.40
24636;DHT22;12772;49.794;10.024;2023-03-23T02:26:07;15.70;36.40
24636;DHT22;12772;49.794;10.024;2023-03-23T02:35:00;15.70;36.40
24636;DHT22;12772;49.794;10.024;2023-03-23T02:39:09;15.70;36.40
24636;DHT22;12772;49.794;10.024;2023-03-23T02:43:15;15.70;36.40
24636;DHT22;12772;49.794;10.024;2023-03-23T02:47:21;15.70;36.40
24636;DHT22;12772;49.794;10.024;2023-03-23T02:51:26;15.70;36.40
24636;DHT22;12772;49.794;10.024;2023-03-23T02:55:29;15.70;36.40
24636;DHT22;12772;49.794;10.024;2023-03-23T02:59:32;15.70;36.40
24636;DHT22;12772;49.794;10.024;2023-03-23T03:03:34;15.60;36.30
24636;DHT22;12772;49.794;10.024;2023-03-23T03:20:51;15.60;36.20
24636;DHT22;12772;49.794;10.024;2023-03-23T03:24:56;15.60;36.20
24636;DHT22;12772;49.794;10.024;2023-03-23T03:28:59;15.50;36.10
24636;DHT22;12772;49.794;10.024;2023-03-23T03:33:02;15.50;36.10
24636;DHT22;12772;49.794;10.024;2023-03-23T03:37:05;15.50;36.20
24636;DHT22;12772;49.794;10.024;2023-03-23T03:41:08;15.50;36.10
24636;DHT22;12772;49.794;10.024;2023-03-23T03:45:14;15.50;36.10
24636;DHT22;12772;49.794;10.024;2023-03-23T03:49:16;15.50;36.10
24636;DHT22;12772;49.794;10.024;2023-03-23T03:53:18;15.50;36.10
24636;DHT22;12772;49.794;10.024;2023-03-23T03:57:21;15.50;36.10
24636;DHT22;12772;49.794;10.024;2023-03-23T04:01:23;15.50;36.10
24636;DHT22;12772;49.794;10.024;2023-03-23T04:05:25;15.50;36.10
24636;DHT22;12772;49.794;10.024;2023-03-23T04:09:29;15.60;36.20
24636;DHT22;12772;49.794;10.024;2023-03-23T04:13:33;15.60;36.20
24636;DHT22;12772;49.794;10.024;2023-03-23T04:17:35;15.60;36.30
24636;DHT22;12772;49.794;10.024;2023-03-23T04:21:37;15.70;36.40
24636;DHT22;12772;49.794;10.024;2023-03-23T04:25:39;15.70;36.40
24636;DHT22;12772;49.794;10.024;2023-03-23T04:29:42;15.70;36.40
24636;DHT22;12772;49.794;10.024;2023-03-23T04:33:51;15.70;36.40
24636;DHT22;12772;49.794;10.024;2023-03-23T04:37:54;15.80;36.50
24636;DHT22;12772;49.794;10.024;2023-03-23T04:41:56;15.70;36.40
24636;DHT22;12772;49.794;10.024;2023-03-23T04:46:01;15.70;36.40
24636;DHT22;12772;49.794;10.024;2023-03-23T04:50:05;15.70;36.40
24636;DHT22;12772;49.794;10.024;2023-03-23T04:54:08;15.70;36.40
24636;DHT22;12772;49.794;10.024;2023-03-23T04:58:11;15.70;36.40
24636;DHT22;12772;49.794;10.024;2023-03-23T05:02:15;15.70;36.40
24636;DHT22;12772;49.794;10.024;2023-03-23T05:06:17;15.70;36.40
24636;DHT22;12772;49.794;10.024;2023-03-23T05:10:19;15.70;36.40
24636;DHT22;12772;49.794;10.024;2023-03-23T05:14:22;15.70;36.40
24636;DHT22;12772;49.794;10.024;2023-03-23T05:18:24;15.70;36.40
24636;DHT22;12772;49.794;10.024;2023-03-23T05:22:27;15.70;36.40
24636;DHT22;12772;49.794;10.024;2023-03-23T05:26:32;15.70;36.40
24636;DHT22;12772;49.794;10.024;2023-03-23T05:30:35;15.70;36.40
24636;DHT22;12772;49.794;10.024;2023-03-23T05:34:37;15.70;36.40
24636;DHT22;12772;49.794;10.024;2023-03-23T05:38:39;15.90;36.60
24636;DHT22;12772;49.794;10.024;2023-03-23T05:42:45;15.70;36.40
24636;DHT22;12772;49.794;10.024;2023-03-23T05:46:48;15.70;36.40
24636;DHT22;12772;49.794;10.024;2023-03-23T05:50:50;15.70;37.00
24636;DHT22;12772;49.794;10.024;2023-03-23T05:54:53;15.70;37.90
24636;DHT22;12772;49.794;10.024;2023-03-23T05:58:55;15.70;38.70
24636;DHT22;12772;49.794;10.024;2023-03-23T06:02:57;15.70;39.20
24636;DHT22;12772;49.794;10.024;2023-03-23T06:07:03;15.70;39.60
24636;DHT22;12772;49.794;10.024;2023-03-23T06:11:05;15.60;40.00
24636;DHT22;12772;49.794;10.024;2023-03-23T06:15:09;15.60;40.40
24636;DHT22;12772;49.794;10.024;2023-03-23T06:19:11;15.60;40.60
24636;DHT22;12772;49.794;10.024;2023-03-23T06:23:13;15.60;41.30
24636;DHT22;12772;49.794;10.024;2023-03-23T06:27:15;15.70;41.70
24636;DHT22;12772;49.794;10.024;2023-03-23T06:31:18;15.50;41.60
24636;DHT22;12772;49.794;10.024;2023-03-23T06:35:21;15.50;41.70
24636;DHT22;12772;49.794;10.024;2023-03-23T06:39:23;15.60;42.00
24636;DHT22;12772;49.794;10.024;2023-03-23T06:43:25;15.50;41.90
24636;DHT22;12772;49.794;10.024;2023-03-23T06:47:27;15.50;41.70
24636;DHT22;12772;49.794;10.024;2023-03-23T06:51:37;15.50;41.80
24636;DHT22;12772;49.794;10.024;2023-03-23T06:55:39;15.40;41.70
24636;DHT22;12772;49.794;10.024;2023-03-23T06:59:44;15.40;41.80
24636;DHT22;12772;49.794;10.024;2023-03-23T07:03:46;15.40;42.10
24636;DHT22;12772;49.794;10.024;2023-03-23T07:07:49;15.40;42.20
24636;DHT22;12772;49.794;10.024;2023-03-23T07:11:51;15.40;42.50
24636;DHT22;12772;49.794;10.024;2023-03-23T07:15:54;15.40;42.70
24636;DHT22;12772;49.794;10.024;2023-03-23T07:19:56;15.40;42.90
24636;DHT22;12772;49.794;10.024;2023-03-23T07:23:58;15.40;43.00
24636;DHT22;12772;49.794;10.024;2023-03-23T07:28:01;15.30;42.80
24636;DHT22;12772;49.794;10.024;2023-03-23T07:32:04;15.30;42.90
24636;DHT22;12772;49.794;10.024;2023-03-23T07:36:07;15.30;42.30
24636;DHT22;12772;49.794;10.024;2023-03-23T07:40:09;15.30;42.20
24636;DHT22;12772;49.794;10.024;2023-03-23T07:44:15;15.30;41.90
24636;DHT22;12772;49.794;10.024;2023-03-23T07:48:17;15.30;41.80
24636;DHT22;12772;49.794;10.024;2023-03-23T07:52:19;15.30;41.80
24636;DHT22;12772;49.794;10.024;2023-03-23T07:56:21;15.40;42.00
24636;DHT22;12772;49.794;10.024;2023-03-23T08:00:24;15.40;42.00
24636;DHT22;12772;49.794;10.024;2023-03-23T08:04:26;15.40;42.20
24636;DHT22;12772;49.794;10.024;2023-03-23T08:08:28;15.40;42.30
24636;DHT22;12772;49.794;10.024;2023-03-23T08:12:30;15.50;42.50
24636;DHT22;12772;49.794;10.024;2023-03-23T08:16:33;15.60;42.60
24636;DHT22;12772;49.794;10.024;2023-03-23T08:20:35;15.60;42.80
24636;DHT22;12772;49.794;10.024;2023-03-23T08:24:37;15.60;43.20
24636;DHT22;12772;49.794;10.024;2023-03-23T08:28:39;15.60;43.30
24636;DHT22;12772;49.794;10.024;2023-03-23T08:32:43;15.70;44.20
24636;DHT22;12772;49.794;10.024;2023-03-23T08:36:46;15.60;44.30
24636;DHT22;12772;49.794;10.024;2023-03-23T08:40:48;15.60;44.90
24636;DHT22;12772;49.794;10.024;2023-03-23T08:44:51;15.60;45.10
24636;DHT22;12772;49.794;10.024;2023-03-23T08:48:56;15.60;45.40
24636;DHT22;12772;49.794;10.024;2023-03-23T08:52:59;15.60;46.20
24636;DHT22;12772;49.794;10.024;2023-03-23T08:57:02;15.60;46.70
24636;DHT22;12772;49.794;10.024;2023-03-23T09:01:06;15.60;47.30
24636;DHT22;12772;49.794;10.024;2023-03-23T09:05:09;15.50;47.90
24636;DHT22;12772;49.794;10.024;2023-03-23T09:09:12;15.40;48.80
24636;DHT22;12772;49.794;10.024;2023-03-23T09:13:14;15.30;48.50
24636;DHT22;12772;49.794;10.024;2023-03-23T09:17:16;15.30;48.50
24636;DHT22;12772;49.794;10.024;2023-03-23T09:21:19;15.30;48.30
24636;DHT22;12772;49.794;10.024;2023-03-23T09:25:26;15.30;48.10
24636;DHT22;12772;49.794;10.024;2023-03-23T09:29:28;15.30;48.30
24636;DHT22;12772;49.794;10.024;2023-03-23T09:33:31;15.30;48.50
24636;DHT22;12772;49.794;10.024;2023-03-23T09:37:34;15.40;48.70
24636;DHT22;12772;49.794;10.024;2023-03-23T09:46:19;15.30;48.90
24636;DHT22;12772;49.794;10.024;2023-03-23T09:50:29;15.30;49.40
24636;DHT22;12772;49.794;10.024;2023-03-23T09:54:51;15.20;49.60
24636;DHT22;12772;49.794;10.024;2023-03-23T09:59:08;15.20;49.60
24636;DHT22;12772;49.794;10.024;2023-03-23T10:03:15;15.30;49.70
24636;DHT22;12772;49.794;10.024;2023-03-23T10:07:20;15.30;49.70
24636;DHT22;12772;49.794;10.024;2023-03-23T10:15:40;15.40;49.80
24636;DHT22;12772;49.794;10.024;2023-03-23T10:28:04;15.40;49.80
24636;DHT22;12772;49.794;10.024;2023-03-23T10:32:12;15.60;50.10
24636;DHT22;12772;49.794;10.024;2023-03-23T10:36:35;15.50;50.00
24636;DHT22;12772;49.794;10.024;2023-03-23T10:40:56;15.50;50.00
24636;DHT22;12772;49.794;10.024;2023-03-23T10:45:09;15.60;49.40
24636;DHT22;12772;49.794;10.024;2023-03-23T10:49:17;15.60;48.80
24636;DHT22;12772;49.794;10.024;2023-03-23T10:53:25;15.70;48.40
24636;DHT22;12772;49.794;10.024;2023-03-23T10:57:30;15.70;48.30
24636;DHT22;12772;49.794;10.024;2023-03-23T11:01:34;15.80;48.10
24636;DHT22;12772;49.794;10.024;2023-03-23T11:05:48;15.90;47.60
24636;DHT22;12772;49.794;10.024;2023-03-23T11:09:53;16.00;47.00
24636;DHT22;12772;49.794;10.024;2023-03-23T11:14:01;16.10;46.80
24636;DHT22;12772;49.794;10.024;2023-03-23T11:18:35;16.20;46.30
24636;DHT22;12772;49.794;10.024;2023-03-23T11:22:32;16.30;45.80
24636;DHT22;12772;49.794;10.024;2023-03-23T11:26:36;16.30;44.20
24636;DHT22;12772;49.794;10.024;2023-03-23T11:30:40;16.30;44.30
24636;DHT22;12772;49.794;10.024;2023-03-23T11:34:47;16.40;43.70
24636;DHT22;12772;49.794;10.024;2023-03-23T11:38:53;16.40;43.80
24636;DHT22;12772;49.794;10.024;2023-03-23T11:43:09;16.30;42.80
24636;DHT22;12772;49.794;10.024;2023-03-23T11:47:36;16.30;43.30
24636;DHT22;12772;49.794;10.024;2023-03-23T11:51:50;16.30;43.40
24636;DHT22;12772;49.794;10.024;2023-03-23T11:56:19;16.30;43.60
24636;DHT22;12772;49.794;10.024;2023-03-23T12:00:23;16.40;43.60
24636;DHT22;12772;49.794;10.024;2023-03-23T12:04:39;16.30;44.10
24636;DHT22;12772;49.794;10.024;2023-03-23T12:09:12;16.30;44.90
24636;DHT22;12772;49.794;10.024;2023-03-23T12:18:14;16.20;45.90
24636;DHT22;12772;49.794;10.024;2023-03-23T12:23:01;16.20;46.00
24636;DHT22;12772;49.794;10.024;2023-03-23T12:31:25;16.20;46.50
24636;DHT22;12772;49.794;10.024;2023-03-23T12:35:48;16.20;46.60
24636;DHT22;12772;49.794;10.024;2023-03-23T12:44:11;16.20;46.80
24636;DHT22;12772;49.794;10.024;2023-03-23T12:48:18;16.30;47.20
24636;DHT22;12772;49.794;10.024;2023-03-23T12:52:36;16.20;47.60
24636;DHT22;12772;49.794;10.024;2023-03-23T12:57:02;16.20;47.90
24636;DHT22;12772;49.794;10.024;2023-03-23T13:01:11;16.10;47.80
24636;DHT22;12772;49.794;10.024;2023-03-23T13:09:46;16.10;48.70
24636;DHT22;12772;49.794;10.024;2023-03-23T13:13:55;16.10;50.20
24636;DHT22;12772;49.794;10.024;2023-03-23T13:18:23;16.10;50.60
24636;DHT22;12772;49.794;10.024;2023-03-23T13:23:22;16.10;50.60
24636;DHT22;12772;49.794;10.024;2023-03-23T13:26:58;16.20;50.80
24636;DHT22;12772;49.794;10.024;2023-03-23T13:31:12;16.20;50.80
24636;DHT22;12772;49.794;10.024;2023-03-23T13:35:17;16.20;51.00
24636;DHT22;12772;49.794;10.024;2023-03-23T13:39:27;16.20;50.80
24636;DHT22;12772;49.794;10.024;2023-03-23T13:43:33;16.30;50.90
24636;DHT22;12772;49.794;10.024;2023-03-23T13:47:38;16.50;51.10
24636;DHT22;12772;49.794;10.024;2023-03-23T13:56:03;16.70;50.30
24636;DHT22;12772;49.794;10.024;2023-03-23T14:00:25;16.70;49.70
24636;DHT22;12772;49.794;10.024;2023-03-23T14:04:31;16.60;49.10
24636;DHT22;12772;49.794;10.024;2023-03-23T14:12:36;16.70;49.20
24636;DHT22;12772;49.794;10.024;2023-03-23T14:16:43;16.70;48.90
24636;DHT22;12772;49.794;10.024;2023-03-23T14:20:46;16.70;48.30
24636;DHT22;12772;49.794;10.024;2023-03-23T14:24:49;16.70;48.00
24636;DHT22;12772;49.794;10.024;2023-03-23T14:28:52;16.60;47.50
24636;DHT22;12772;49.794;10.024;2023-03-23T14:33:06;16.60;47.60
24636;DHT22;12772;49.794;10.024;2023-03-23T14:37:14;16.60;47.50
24636;DHT22;12772;49.794;10.024;2023-03-23T14:41:16;16.80;47.40
24636;DHT22;12772;49.794;10.024;2023-03-23T14:45:20;16.70;47.20
24636;DHT22;12772;49.794;10.024;2023-03-23T14:49:29;16.70;47.00
24636;DHT22;12772;49.794;10.024;2023-03-23T14:53:39;16.70;46.80
24636;DHT22;12772;49.794;10.024;2023-03-23T14:57:43;16.60;46.80
24636;DHT22;12772;49.794;10.024;2023-03-23T15:01:47;16.60;46.30
24636;DHT22;12772;49.794;10.024;2023-03-23T15:05:59;16.60;46.10
24636;DHT22;12772;49.794;10.024;2023-03-23T15:10:08;16.60;46.00
24636;DHT22;12772;49.794;10.024;2023-03-23T15:14:18;16.50;45.40
24636;DHT22;12772;49.794;10.024;2023-03-23T15:18:32;16.40;45.40
24636;DHT22;12772;49.794;10.024;2023-03-23T15:22:34;16.40;45.60
24636;DHT22;12772;49.794;10.024;2023-03-23T15:26:43;16.50;45.90
24636;DHT22;12772;49.794;10.024;2023-03-23T15:30:56;16.30;45.70
24636;DHT22;12772;49.794;10.024;2023-03-23T15:35:04;16.20;45.80
24636;DHT22;12772;49.794;10.024;2023-03-23T15:39:12;16.20;45.70
24636;DHT22;12772;49.794;10.024;2023-03-23T15:43:21;16.20;45.80
24636;DHT22;12772;49.794;10.024;2023-03-23T15:47:35;16.10;46.10
24636;DHT22;12772;49.794;10.024;2023-03-23T15:51:37;16.10;46.50
24636;DHT22;12772;49.794;10.024;2023-03-23T15:55:40;16.10;46.60
24636;DHT22;12772;49.794;10.024;2023-03-23T15:59:42;16.10;46.50
24636;DHT22;12772;49.794;10.024;2023-03-23T16:03:49;16.10;46.50
24636;DHT22;12772;49.794;10.024;2023-03-23T16:07:53;16.10;46.50
24636;DHT22;12772;49.794;10.024;2023-03-23T16:11:55;16.10;46.60
24636;DHT22;12772;49.794;10.024;2023-03-23T16:15:57;16.20;46.40
24636;DHT22;12772;49.794;10.024;2023-03-23T16:19:59;16.20;46.30
24636;DHT22;12772;49.794;10.024;2023-03-23T16:24:03;16.20;46.20
24636;DHT22;12772;49.794;10.024;2023-03-23T16:28:10;16.20;46.20
24636;DHT22;12772;49.794;10.024;2023-03-23T16:32:12;16.30;46.00
24636;DHT22;12772;49.794;10.024;2023-03-23T16:36:14;16.30;45.80
24636;DHT22;12772;49.794;10.024;2023-03-23T16:40:18;16.30;45.60
24636;DHT22;12772;49.794;10.024;2023-03-23T16:44:20;16.30;45.70
24636;DHT22;12772;49.794;10.024;2023-03-23T16:48:23;16.30;46.30
24636;DHT22;12772;49.794;10.024;2023-03-23T16:52:26;16.30;45.50
24636;DHT22;12772;49.794;10.024;2023-03-23T16:56:29;16.30;45.70
24636;DHT22;12772;49.794;10.024;2023-03-23T17:00:32;16.50;46.00
24636;DHT22;12772;49.794;10.024;2023-03-23T17:04:34;16.30;45.60
24636;DHT22;12772;49.794;10.024;2023-03-23T17:08:37;16.30;45.50
24636;DHT22;12772;49.794;10.024;2023-03-23T17:12:39;16.90;46.10
24636;DHT22;12772;49.794;10.024;2023-03-23T17:16:41;16.20;45.40
24636;DHT22;12772;49.794;10.024;2023-03-23T17:20:43;16.20;45.60
24636;DHT22;12772;49.794;10.024;2023-03-23T17:24:45;16.20;45.60
24636;DHT22;12772;49.794;10.024;2023-03-23T17:28:48;16.20;45.60
24636;DHT22;12772;49.794;10.024;2023-03-23T17:32:50;16.20;45.80
24636;DHT22;12772;49.794;10.024;2023-03-23T17:36:53;16.20;45.80
24636;DHT22;12772;49.794;10.024;2023-03-23T17:41:00;16.20;45.80
24636;DHT22;12772;49.794;10.024;2023-03-23T17:45:06;16.20;45.90
24636;DHT22;12772;49.794;10.024;2023-03-23T17:49:09;16.20;45.90
24636;DHT22;12772;49.794;10.024;2023-03-23T17:53:11;16.20;46.00
24636;DHT22;12772;49.794;10.024;2023-03-23T17:57:13;16.20;46.10
24636;DHT22;12772;49.794;10.024;2023-03-23T18:01:15;16.20;46.10
24636;DHT22;12772;49.794;10.024;2023-03-23T18:05:18;16.20;46.10
24636;DHT22;12772;49.794;10.024;2023-03-23T18:09:20;16.20;46.00
24636;DHT22;12772;49.794;10.024;2023-03-23T18:13:23;16.30;46.10
24636;DHT22;12772;49.794;10.024;2023-03-23T18:17:26;16.20;45.80
24636;DHT22;12772;49.794;10.024;2023-03-23T18:21:28;16.20;45.70
24636;DHT22;12772;49.794;10.024;2023-03-23T18:25:31;16.30;45.80
24636;DHT22;12772;49.794;10.024;2023-03-23T18:29:33;16.30;45.70
24636;DHT22;12772;49.794;10.024;2023-03-23T18:33:36;16.30;45.80
24636;DHT22;12772;49.794;10.024;2023-03-23T18:37:38;16.30;45.70
24636;DHT22;12772;49.794;10.024;2023-03-23T18:41:41;16.30;45.70
24636;DHT22;12772;49.794;10.024;2023-03-23T18:45:50;16.30;45.70
24636;DHT22;12772;49.794;10.024;2023-03-23T18:49:53;16.30;45.70
24636;DHT22;12772;49.794;10.024;2023-03-23T18:53:56;16.30;45.70
24636;DHT22;12772;49.794;10.024;2023-03-23T18:57:57;16.40;45.90
24636;DHT22;12772;49.794;10.024;2023-03-23T19:02:00;16.30;45.70
24636;DHT22;12772;49.794;10.024;2023-03-23T19:06:03;16.30;45.80
24636;DHT22;12772;49.794;10.024;2023-03-23T19:10:06;16.30;45.90
24636;DHT22;12772;49.794;10.024;2023-03-23T19:14:09;16.40;45.90
24636;DHT22;12772;49.794;10.024;2023-03-23T19:18:11;16.40;45.90
24636;DHT22;12772;49.794;10.024;2023-03-23T19:22:13;16.40;46.00
24636;DHT22;12772;49.794;10.024;2023-03-23T19:26:22;16.30;45.90
24636;DHT22;12772;49.794;10.024;2023-03-23T19:30:24;16.30;46.10
24636;DHT22;12772;49.794;10.024;2023-03-23T19:34:26;16.30;46.20
24636;DHT22;12772;49.794;10.024;2023-03-23T19:38:30;16.40;46.30
24636;DHT22;12772;49.794;10.024;2023-03-23T19:42:32;16.30;46.30
24636;DHT22;12772;49.794;10.024;2023-03-23T19:46:34;16.30;46.20
24636;DHT22;12772;49.794;10.024;2023-03-23T19:50:37;16.40;46.40
24636;DHT22;12772;49.794;10.024;2023-03-23T19:54:39;16.30;46.20
24636;DHT22;12772;49.794;10.024;2023-03-23T19:58:42;16.40;46.30
24636;DHT22;12772;49.794;10.024;2023-03-23T20:02:44;16.30;46.20
24636;DHT22;12772;49.794;10.024;2023-03-23T20:06:46;16.30;46.30
24636;DHT22;12772;49.794;10.024;2023-03-23T20:10:48;16.50;46.50
24636;DHT22;12772;49.794;10.024;2023-03-23T20:14:50;16.40;46.40
24636;DHT22;12772;49.794;10.024;2023-03-23T20:18:54;16.40;46.40
24636;DHT22;12772;49.794;10.024;2023-03-23T20:22:56;16.40;46.30
24636;DHT22;12772;49.794;10.024;2023-03-23T20:26:58;16.40;46.30
24636;DHT22;12772;49.794;10.024;2023-03-23T20:31:12;16.40;46.30
24636;DHT22;12772;49.794;10.024;2023-03-23T20:35:14;16.40;46.40
24636;DHT22;12772;49.794;10.024;2023-03-23T20:39:17;16.40;46.40
24636;DHT22;12772;49.794;10.024;2023-03-23T20:43:23;16.40;46.30
24636;DHT22;12772;49.794;10.024;2023-03-23T20:47:29;16.40;46.50
24636;DHT22;12772;49.794;10.024;2023-03-23T20:51:31;16.30;46.40
24636;DHT22;12772;49.794;10.024;2023-03-23T20:55:33;16.40;46.80
24636;DHT22;12772;49.794;10.024;2023-03-23T20:59:35;16.30;46.70
24636;DHT22;12772;49.794;10.024;2023-03-23T21:03:39;16.20;46.80
24636;DHT22;12772;49.794;10.024;2023-03-23T21:07:42;16.20;47.10
24636;DHT22;12772;49.794;10.024;2023-03-23T21:11:45;16.10;47.20
24636;DHT22;12772;49.794;10.024;2023-03-23T21:15:47;16.10;47.30
24636;DHT22;12772;49.794;10.024;2023-03-23T21:19:49;16.10;47.50
24636;DHT22;12772;49.794;10.024;2023-03-23T21:23:52;16.00;47.50
24636;DHT22;12772;49.794;10.024;2023-03-23T21:27:55;15.90;48.00
24636;DHT22;12772;49.794;10.024;2023-03-23T21:31:57;15.80;48.10
24636;DHT22;12772;49.794;10.024;2023-03-23T21:35:59;15.70;48.40
24636;DHT22;12772;49.794;10.024;2023-03-23T21:40:03;15.60;48.50
24636;DHT22;12772;49.794;10.024;2023-03-23T21:44:06;15.60;48.60
24636;DHT22;12772;49.794;10.024;2023-03-23T21:48:11;15.60;48.50
24636;DHT22;12772;49.794;10.024;2023-03-23T21:52:15;15.90;48.80
24636;DHT22;12772;49.794;10.024;2023-03-23T21:56:17;15.50;48.40
24636;DHT22;12772;49.794;10.024;2023-03-23T22:00:19;15.50;48.10
24636;DHT22;12772;49.794;10.024;2023-03-23T22:04:21;15.50;48.00
24636;DHT22;12772;49.794;10.024;2023-03-23T22:08:27;15.50;47.60
24636;DHT22;12772;49.794;10.024;2023-03-23T22:12:29;15.60;47.50
24636;DHT22;12772;49.794;10.024;2023-03-23T22:16:32;15.60;47.30
24636;DHT22;12772;49.794;10.024;2023-03-23T22:20:35;15.50;47.10
24636;DHT22;12772;49.794;10.024;2023-03-23T22:24:40;15.60;46.80
24636;DHT22;12772;49.794;10.024;2023-03-23T22:28:43;15.60;46.90
24636;DHT22;12772;49.794;10.024;2023-03-23T22:32:46;15.70;46.70
24636;DHT22;12772;49.794;10.024;2023-03-23T22:36:48;15.60;46.40
24636;DHT22;12772;49.794;10.024;2023-03-23T22:40:55;15.70;46.30
24636;DHT22;12772;49.794;10.024;2023-03-23T22:44:58;15.70;46.10
24636;DHT22;12772;49.794;10.024;2023-03-23T22:49:00;15.70;45.80
24636;DHT22;12772;49.794;10.024;2023-03-23T22:53:03;15.70;45.60
24636;DHT22;12772;49.794;10.024;2023-03-23T22:57:05;15.70;45.40
24636;DHT22;12772;49.794;10.024;2023-03-23T23:01:13;15.80;45.40
24636;DHT22;12772;49.794;10.024;2023-03-23T23:05:15;15.80;45.30
24636;DHT22;12772;49.794;10.024;2023-03-23T23:09:17;15.80;45.10
24636;DHT22;12772;49.794;10.024;2023-03-23T23:13:20;15.80;44.90
24636;DHT22;12772;49.794;10.024;2023-03-23T23:17:23;15.80;44.90
24636;DHT22;12772;49.794;10.024;2023-03-23T23:21:25;15.80;44.70
24636;DHT22;12772;49.794;10.024;2023-03-23T23:25:29;15.80;45.30
24636;DHT22;12772;49.794;10.024;2023-03-23T23:29:31;15.80;44.50
24636;DHT22;12772;49.794;10.024;2023-03-23T23:33:33;15.90;44.60
24636;DHT22;12772;49.794;10.024;2023-03-23T23:37:35;15.90;44.40
24636;DHT22;12772;49.794;10.024;2023-03-23T23:41:38;15.90;44.20
24636;DHT22;12772;49.794;10.024;2023-03-23T23:45:40;15.90;44.20
24636;DHT22;12772;49.794;10.024;2023-03-23T23:49:43;15.90;44.00
24636;DHT22;12772;49.794;10.024;2023-03-23T23:53:45;15.90;44.00
24636;DHT22;12772;49.794;10.024;2023-03-23T23:57:53;15.90;44.00
